Time;durP1;ratioP1;P1;durP2;ratioP2;P2;SDS_P1;SDS_P2;PMS_P1;PMS_P2;Temp;Humidity;BMP_temperature;BMP_pressure;BME280_temperature;BME280_humidity;BME280_pressure;Samples;Min_cycle;Max_cycle;Signal;HPM_P1;HPM_P2
2023/04/12 00:00:16;;;;;;;3.53;1.80;;;;;;;;;;5039775;28;20357;-82
2023/04/12 00:02:43;;;;;;;5.65;3.42;;;;;;;;;;5043699;28;20036;-85
2023/04/12 00:05:10;;;;;;;6.60;4.53;;;;;;;;;;5044362;28;20029;-84
2023/04/12 00:07:37;;;;;;;11.57;5.07;;;;;;;;;;5043994;28;20036;-84
2023/04/12 00:10:05;;;;;;;8.68;4.22;;;;;;;;;;5042844;28;20078;-83
2023/04/12 00:12:30;;;;;;;8.25;4.03;;;;;;;;;;5038937;28;20060;-83
2023/04/12 00:14:55;;;;;;;5.78;3.08;;;;;;;;;;5037819;28;20049;-84
2023/04/12 00:17:21;;;;;;;8.05;3.72;;;;;;;;;;5035196;28;20021;-83
2023/04/12 00:19:48;;;;;;;2.72;2.20;;;;;;;;;;5038472;28;20476;-83
2023/04/12 00:22:14;;;;;;;3.53;2.97;;;;;;;;;;5037659;28;20030;-83
2023/04/12 00:24:40;;;;;;;5.47;3.50;;;;;;;;;;5041411;28;20041;-83
2023/04/12 00:27:06;;;;;;;5.43;3.53;;;;;;;;;;5039549;28;20032;-82
2023/04/12 00:29:32;;;;;;;10.73;5.75;;;;;;;;;;5043078;28;20035;-83
2023/04/12 00:32:02;;;;;;;5.22;3.42;;;;;;;;;;5040763;28;20107;-83
2023/04/12 00:34:28;;;;;;;6.03;2.92;;;;;;;;;;5042329;28;20370;-84
2023/04/12 00:36:54;;;;;;;5.78;2.83;;;;;;;;;;5041690;28;20051;-82
2023/04/12 00:39:19;;;;;;;9.35;5.93;;;;;;;;;;5041623;28;20032;-84
2023/04/12 00:41:45;;;;;;;8.50;3.97;;;;;;;;;;5039611;28;20397;-82
2023/04/12 00:44:10;;;;;;;5.28;3.88;;;;;;;;;;5042308;28;20175;-84
2023/04/12 00:46:36;;;;;;;2.30;1.77;;;;;;;;;;5047922;28;20452;-82
2023/04/12 00:49:02;;;;;;;10.82;5.75;;;;;;;;;;5039695;28;20063;-81
2023/04/12 00:51:32;;;;;;;9.10;4.68;;;;;;;;;;5047550;28;20028;-82
2023/04/12 00:54:00;;;;;;;7.80;4.30;;;;;;;;;;5038180;28;20104;-83
2023/04/12 00:56:27;;;;;;;5.38;3.28;;;;;;;;;;5045208;28;20037;-82
2023/04/12 00:58:55;;;;;;;8.23;4.15;;;;;;;;;;5045910;28;20074;-82
2023/04/12 01:01:21;;;;;;;8.98;5.47;;;;;;;;;;5037873;28;20469;-83
2023/04/12 01:03:49;;;;;;;8.68;5.65;;;;;;;;;;5038332;28;20029;-81
2023/04/12 01:06:28;;;;;;;6.90;4.10;;;;;;;;;;5035848;28;20048;-83
2023/04/12 01:09:10;;;;;;;5.45;2.97;;;;;;;;;;5037468;28;20088;-82
2023/04/12 01:11:43;;;;;;;6.53;3.63;;;;;;;;;;5035595;28;20401;-82
2023/04/12 01:14:13;;;;;;;4.65;3.35;;;;;;;;;;5034229;28;20108;-83
2023/04/12 01:16:44;;;;;;;5.05;3.40;;;;;;;;;;5041974;28;21433;-83
2023/04/12 01:19:56;;;;;;;7.82;4.30;;;;;;;;;;5030226;28;20037;-83
2023/04/12 01:22:40;;;;;;;6.97;3.88;;;;;;;;;;5032742;28;20056;-82
2023/04/12 01:25:22;;;;;;;5.78;3.80;;;;;;;;;;5049292;28;20070;-82
2023/04/12 01:28:01;;;;;;;5.07;3.67;;;;;;;;;;5038176;28;20025;-81
2023/04/12 01:30:28;;;;;;;5.63;3.35;;;;;;;;;;5035740;28;20473;-83
2023/04/12 01:32:55;;;;;;;8.07;4.13;;;;;;;;;;5035364;28;20044;-82
2023/04/12 01:35:25;;;;;;;4.07;2.47;;;;;;;;;;5030751;28;20428;-81
2023/04/12 01:37:51;;;;;;;4.47;2.35;;;;;;;;;;5038401;28;20021;-81
2023/04/12 01:40:18;;;;;;;8.27;4.28;;;;;;;;;;5037262;28;20033;-83
2023/04/12 01:42:43;;;;;;;6.40;3.67;;;;;;;;;;5036036;28;20029;-84
2023/04/12 01:45:10;;;;;;;4.72;3.30;;;;;;;;;;5037185;28;20041;-83
2023/04/12 01:47:35;;;;;;;10.10;4.13;;;;;;;;;;5043317;28;20111;-82
2023/04/12 01:50:17;;;;;;;7.88;3.83;;;;;;;;;;5042925;28;20051;-83
2023/04/12 01:53:00;;;;;;;8.80;3.10;;;;;;;;;;5042842;28;20504;-82
2023/04/12 01:55:30;;;;;;;7.45;4.47;;;;;;;;;;5039582;28;20159;-83
2023/04/12 01:57:56;;;;;;;6.40;2.63;;;;;;;;;;5041441;28;20086;-84
2023/04/12 02:00:23;;;;;;;8.50;4.32;;;;;;;;;;5045732;28;20116;-83
2023/04/12 02:02:49;;;;;;;6.95;3.20;;;;;;;;;;5037081;28;20025;-82
2023/04/12 02:05:15;;;;;;;7.38;4.10;;;;;;;;;;5037929;28;20511;-82
2023/04/12 02:07:41;;;;;;;7.78;3.67;;;;;;;;;;5036446;28;20029;-81
2023/04/12 02:10:07;;;;;;;6.18;2.92;;;;;;;;;;5036889;28;20539;-83
2023/04/12 02:12:32;;;;;;;5.82;3.45;;;;;;;;;;5043335;28;20151;-85
2023/04/12 02:14:59;;;;;;;3.78;2.65;;;;;;;;;;5035547;28;20013;-82
2023/04/12 02:17:24;;;;;;;7.50;4.13;;;;;;;;;;5040905;28;20025;-82
2023/04/12 02:19:50;;;;;;;10.50;4.22;;;;;;;;;;5031786;28;20042;-84
2023/04/12 02:22:16;;;;;;;6.90;3.85;;;;;;;;;;5039748;28;20033;-84
2023/04/12 02:24:41;;;;;;;9.32;4.53;;;;;;;;;;5041207;28;20032;-83
2023/04/12 02:27:06;;;;;;;6.65;4.10;;;;;;;;;;5042578;28;20120;-81
2023/04/12 02:29:32;;;;;;;8.60;4.80;;;;;;;;;;5038083;28;20162;-81
2023/04/12 02:31:57;;;;;;;8.68;4.00;;;;;;;;;;5043055;28;20032;-83
2023/04/12 02:34:23;;;;;;;10.45;5.20;;;;;;;;;;5051689;28;20495;-82
2023/04/12 02:36:49;;;;;;;7.10;4.72;;;;;;;;;;5043388;28;20104;-83
2023/04/12 02:39:17;;;;;;;5.15;3.10;;;;;;;;;;5044089;28;20032;-82
2023/04/12 02:41:44;;;;;;;8.13;4.40;;;;;;;;;;5037364;28;22896;-81
2023/04/12 02:44:09;;;;;;;7.90;5.32;;;;;;;;;;5049171;28;20049;-83
2023/04/12 02:46:35;;;;;;;6.35;4.10;;;;;;;;;;5044328;28;20104;-82
2023/04/12 02:49:00;;;;;;;8.32;5.28;;;;;;;;;;5045709;28;20029;-84
2023/04/12 02:51:26;;;;;;;7.80;4.18;;;;;;;;;;5044126;28;20096;-84
2023/04/12 02:53:52;;;;;;;6.03;4.03;;;;;;;;;;5037566;28;20535;-84
2023/04/12 02:56:18;;;;;;;6.72;3.70;;;;;;;;;;5041962;28;20034;-85
2023/04/12 02:58:43;;;;;;;9.73;5.60;;;;;;;;;;5040067;28;20038;-81
2023/04/12 03:01:11;;;;;;;5.38;3.42;;;;;;;;;;5045474;28;20037;-83
2023/04/12 03:03:37;;;;;;;8.90;4.13;;;;;;;;;;5046609;28;20032;-82
2023/04/12 03:06:03;;;;;;;10.93;5.07;;;;;;;;;;5040129;28;20033;-82
2023/04/12 03:08:29;;;;;;;14.18;5.63;;;;;;;;;;5042077;28;20020;-83
2023/04/12 03:10:55;;;;;;;12.00;4.55;;;;;;;;;;5034040;28;20029;-81
2023/04/12 03:13:20;;;;;;;5.78;4.53;;;;;;;;;;5042239;28;20068;-83
2023/04/12 03:15:48;;;;;;;4.60;2.60;;;;;;;;;;5051848;28;20033;-85
2023/04/12 03:18:13;;;;;;;7.57;4.38;;;;;;;;;;5038614;28;20033;-83
2023/04/12 03:20:42;;;;;;;5.85;3.83;;;;;;;;;;5046098;28;20095;-82
2023/04/12 03:23:08;;;;;;;11.85;5.80;;;;;;;;;;5039729;28;20053;-82
2023/04/12 03:25:33;;;;;;;10.25;5.15;;;;;;;;;;5040575;28;20814;-85
2023/04/12 03:27:59;;;;;;;10.88;5.57;;;;;;;;;;5037695;28;20052;-83
2023/04/12 03:30:24;;;;;;;7.97;5.38;;;;;;;;;;5046694;28;20013;-85
2023/04/12 03:32:50;;;;;;;7.35;3.92;;;;;;;;;;5039192;28;20022;-82
2023/04/12 03:35:15;;;;;;;9.15;5.63;;;;;;;;;;5040573;28;20029;-83
2023/04/12 03:37:42;;;;;;;7.28;4.43;;;;;;;;;;5041871;28;20040;-83
2023/04/12 03:40:09;;;;;;;8.63;4.25;;;;;;;;;;5042930;28;20151;-85
2023/04/12 03:42:35;;;;;;;12.23;4.38;;;;;;;;;;5046845;28;20094;-82
2023/04/12 03:45:01;;;;;;;5.18;3.28;;;;;;;;;;5048309;28;20052;-83
2023/04/12 03:47:26;;;;;;;10.43;6.32;;;;;;;;;;5040533;28;20053;-83
2023/04/12 03:49:54;;;;;;;7.25;4.78;;;;;;;;;;5044775;28;20669;-83
2023/04/12 03:52:20;;;;;;;10.82;6.28;;;;;;;;;;5039696;28;20100;-82
2023/04/12 03:54:45;;;;;;;7.15;4.18;;;;;;;;;;5042248;28;20132;-83
2023/04/12 03:57:11;;;;;;;8.77;4.85;;;;;;;;;;5042550;28;20043;-83
2023/04/12 03:59:36;;;;;;;8.73;5.13;;;;;;;;;;5037672;28;20056;-83
2023/04/12 04:02:02;;;;;;;7.70;5.13;;;;;;;;;;5039945;28;20103;-83
2023/04/12 04:04:27;;;;;;;14.63;7.95;;;;;;;;;;5042139;28;20431;-82
2023/04/12 04:06:53;;;;;;;6.30;3.35;;;;;;;;;;5035460;28;20066;-83
2023/04/12 04:09:19;;;;;;;6.50;4.00;;;;;;;;;;5035717;28;20039;-82
2023/04/12 04:11:45;;;;;;;8.70;6.60;;;;;;;;;;5042443;28;20051;-84
2023/04/12 04:14:11;;;;;;;8.35;5.40;;;;;;;;;;5041254;28;20116;-84
2023/04/12 04:16:36;;;;;;;8.70;4.72;;;;;;;;;;5044128;28;20108;-84
2023/04/12 04:19:02;;;;;;;8.20;4.60;;;;;;;;;;5041739;28;20025;-83
2023/04/12 04:21:29;;;;;;;11.57;6.45;;;;;;;;;;5040074;28;20030;-82
2023/04/12 04:23:57;;;;;;;9.55;5.63;;;;;;;;;;5045488;28;20884;-83
2023/04/12 04:26:31;;;;;;;6.80;4.32;;;;;;;;;;5037316;28;20028;-83
2023/04/12 04:29:00;;;;;;;8.07;4.45;;;;;;;;;;5041589;28;20037;-80
2023/04/12 04:31:26;;;;;;;8.80;4.15;;;;;;;;;;5037245;28;20465;-82
2023/04/12 04:33:52;;;;;;;10.77;6.07;;;;;;;;;;5039075;28;20040;-81
2023/04/12 04:36:18;;;;;;;9.48;5.05;;;;;;;;;;5044455;28;20029;-79
2023/04/12 04:38:43;;;;;;;7.93;4.20;;;;;;;;;;5034063;28;20026;-80
2023/04/12 04:41:09;;;;;;;6.93;4.05;;;;;;;;;;5040707;28;20044;-80
2023/04/12 04:43:38;;;;;;;8.10;4.90;;;;;;;;;;5036810;28;20064;-80
2023/04/12 04:46:04;;;;;;;8.60;4.63;;;;;;;;;;5038030;28;20381;-82
2023/04/12 04:48:29;;;;;;;4.43;2.65;;;;;;;;;;5032992;28;20029;-81
2023/04/12 04:50:56;;;;;;;4.63;3.17;;;;;;;;;;5044210;28;20044;-81
2023/04/12 04:53:22;;;;;;;7.60;3.85;;;;;;;;;;5044917;28;20532;-82
2023/04/12 04:55:47;;;;;;;5.72;2.78;;;;;;;;;;5034549;28;20147;-83
2023/04/12 04:58:14;;;;;;;9.60;3.30;;;;;;;;;;5033217;28;20033;-81
2023/04/12 05:00:43;;;;;;;5.53;2.97;;;;;;;;;;5040249;28;20064;-83
2023/04/12 05:03:09;;;;;;;5.60;3.53;;;;;;;;;;5040747;28;20358;-82
2023/04/12 05:05:35;;;;;;;4.40;2.85;;;;;;;;;;5044566;28;20040;-81
2023/04/12 05:08:01;;;;;;;5.28;2.88;;;;;;;;;;5033660;28;20025;-82
2023/04/12 05:10:26;;;;;;;3.75;2.28;;;;;;;;;;5041854;28;20473;-81
2023/04/12 05:12:51;;;;;;;3.92;2.42;;;;;;;;;;5039296;28;20086;-84
2023/04/12 05:15:17;;;;;;;4.55;3.03;;;;;;;;;;5039335;28;20366;-82
2023/04/12 05:17:43;;;;;;;5.38;2.60;;;;;;;;;;5039212;28;20029;-85
2023/04/12 05:20:11;;;;;;;4.53;2.30;;;;;;;;;;5031510;28;20033;-85
2023/04/12 05:22:37;;;;;;;10.10;3.95;;;;;;;;;;5037651;28;20117;-84
2023/04/12 05:25:02;;;;;;;4.40;2.03;;;;;;;;;;5043465;28;20468;-85
2023/04/12 05:27:29;;;;;;;5.78;2.67;;;;;;;;;;5034934;28;20082;-82
2023/04/12 05:29:58;;;;;;;5.70;3.10;;;;;;;;;;5031894;28;20025;-85
2023/04/12 05:32:24;;;;;;;4.47;2.33;;;;;;;;;;5030995;28;20025;-80
2023/04/12 05:34:51;;;;;;;1.83;1.35;;;;;;;;;;5038187;28;20517;-80
2023/04/12 05:37:16;;;;;;;1.90;1.63;;;;;;;;;;5041829;28;20025;-82
2023/04/12 05:39:41;;;;;;;1.90;1.65;;;;;;;;;;5044621;28;20036;-82
2023/04/12 05:42:07;;;;;;;5.18;2.42;;;;;;;;;;5037578;28;20033;-83
2023/04/12 05:44:35;;;;;;;2.03;1.00;;;;;;;;;;5038276;28;20434;-81
2023/04/12 05:47:02;;;;;;;2.40;1.67;;;;;;;;;;5032069;28;20112;-81
2023/04/12 05:49:30;;;;;;;2.45;1.85;;;;;;;;;;5039292;28;20091;-80
2023/04/12 05:51:56;;;;;;;4.28;2.35;;;;;;;;;;5039589;28;20099;-81
2023/04/12 05:54:21;;;;;;;1.55;1.40;;;;;;;;;;5036696;28;20446;-82
2023/04/12 05:56:46;;;;;;;1.88;1.00;;;;;;;;;;5040047;28;20031;-82
2023/04/12 05:59:12;;;;;;;0.93;0.68;;;;;;;;;;5033527;28;20022;-80
2023/04/12 06:01:41;;;;;;;1.35;1.00;;;;;;;;;;5035653;28;20030;-81
2023/04/12 06:04:07;;;;;;;1.07;0.80;;;;;;;;;;5039686;28;20041;-82
2023/04/12 06:06:32;;;;;;;3.50;1.95;;;;;;;;;;5034888;28;20496;-80
2023/04/12 06:09:00;;;;;;;3.03;1.50;;;;;;;;;;5038708;28;20037;-82
2023/04/12 06:11:28;;;;;;;1.73;1.60;;;;;;;;;;5035250;28;20436;-83
2023/04/12 06:13:54;;;;;;;3.28;1.42;;;;;;;;;;5036603;28;20096;-86
2023/04/12 06:16:19;;;;;;;3.53;2.20;;;;;;;;;;5041251;28;20021;-83
2023/04/12 06:18:45;;;;;;;2.20;1.58;;;;;;;;;;5043605;28;20033;-82
2023/04/12 06:21:10;;;;;;;1.95;1.02;;;;;;;;;;5039696;28;20109;-83
2023/04/12 06:23:36;;;;;;;3.50;2.20;;;;;;;;;;5041781;28;20051;-83
2023/04/12 06:26:01;;;;;;;4.78;2.00;;;;;;;;;;5038994;28;20025;-84
2023/04/12 06:28:27;;;;;;;1.92;1.23;;;;;;;;;;5042509;28;20029;-83
2023/04/12 06:30:53;;;;;;;2.42;1.40;;;;;;;;;;5041774;28;20036;-84
2023/04/12 06:33:21;;;;;;;6.75;1.95;;;;;;;;;;5041211;28;20025;-81
2023/04/12 06:35:47;;;;;;;2.22;1.85;;;;;;;;;;5040861;28;20032;-81
2023/04/12 06:38:12;;;;;;;3.10;1.30;;;;;;;;;;5034971;28;20506;-82
2023/04/12 06:40:38;;;;;;;1.73;1.45;;;;;;;;;;5034239;28;20052;-83
2023/04/12 06:43:04;;;;;;;1.83;1.55;;;;;;;;;;5042295;28;20362;-82
2023/04/12 06:45:29;;;;;;;3.65;1.58;;;;;;;;;;5038188;28;20045;-82
2023/04/12 06:47:55;;;;;;;1.65;1.05;;;;;;;;;;5037611;28;20025;-82
2023/04/12 06:50:21;;;;;;;5.40;1.90;;;;;;;;;;5037778;28;20034;-81
2023/04/12 06:52:47;;;;;;;4.28;1.55;;;;;;;;;;5037633;28;20399;-81
2023/04/12 06:55:13;;;;;;;3.22;1.88;;;;;;;;;;5040419;28;20128;-84
2023/04/12 06:57:41;;;;;;;3.05;1.70;;;;;;;;;;5040831;28;20029;-82
2023/04/12 07:00:07;;;;;;;3.85;2.03;;;;;;;;;;5031343;28;20037;-81
2023/04/12 07:02:32;;;;;;;1.58;1.48;;;;;;;;;;5032876;28;20090;-79
2023/04/12 07:04:57;;;;;;;2.65;1.50;;;;;;;;;;5032717;28;20025;-82
2023/04/12 07:07:23;;;;;;;2.22;1.48;;;;;;;;;;5033729;28;20462;-82
2023/04/12 07:09:48;;;;;;;1.40;1.27;;;;;;;;;;5043716;28;20033;-81
2023/04/12 07:12:14;;;;;;;2.10;1.40;;;;;;;;;;5038631;28;20455;-80
2023/04/12 07:14:39;;;;;;;2.15;1.50;;;;;;;;;;5047651;28;20034;-82
2023/04/12 07:17:05;;;;;;;3.42;2.33;;;;;;;;;;5040860;28;20029;-81
2023/04/12 07:19:31;;;;;;;1.90;1.67;;;;;;;;;;5036570;28;20040;-82
2023/04/12 07:21:57;;;;;;;2.55;1.55;;;;;;;;;;5039595;28;20021;-82
2023/04/12 07:24:22;;;;;;;2.22;1.35;;;;;;;;;;5038521;28;20536;-82
2023/04/12 07:26:48;;;;;;;2.08;1.70;;;;;;;;;;5040575;28;20040;-82
2023/04/12 07:29:15;;;;;;;2.90;2.08;;;;;;;;;;5044267;28;20017;-82
2023/04/12 07:31:41;;;;;;;3.67;1.95;;;;;;;;;;5039099;28;20028;-82
2023/04/12 07:34:06;;;;;;;1.70;1.60;;;;;;;;;;5043254;28;20029;-82
2023/04/12 07:36:32;;;;;;;1.65;1.38;;;;;;;;;;5038773;28;20082;-82
2023/04/12 07:38:57;;;;;;;2.35;1.85;;;;;;;;;;5039027;28;20740;-83
2023/04/12 07:41:23;;;;;;;3.08;1.85;;;;;;;;;;5040338;28;20037;-82
2023/04/12 07:43:48;;;;;;;2.10;1.50;;;;;;;;;;5036066;28;20054;-81
2023/04/12 07:46:14;;;;;;;1.88;1.67;;;;;;;;;;5033854;28;20022;-81
2023/04/12 07:48:39;;;;;;;3.13;2.47;;;;;;;;;;5034593;28;20039;-82
2023/04/12 07:51:05;;;;;;;2.05;1.65;;;;;;;;;;5033144;28;20052;-80
2023/04/12 07:53:31;;;;;;;2.53;2.20;;;;;;;;;;5042130;28;20033;-81
2023/04/12 07:55:56;;;;;;;3.65;1.92;;;;;;;;;;5036082;28;20029;-81
2023/04/12 07:58:23;;;;;;;3.80;2.08;;;;;;;;;;5040428;28;20020;-82
2023/04/12 08:00:48;;;;;;;1.75;1.52;;;;;;;;;;5042344;28;20432;-80
2023/04/12 08:03:16;;;;;;;2.97;2.28;;;;;;;;;;5046636;28;20025;-82
2023/04/12 08:05:41;;;;;;;5.85;2.60;;;;;;;;;;5045699;28;20036;-81
2023/04/12 08:08:10;;;;;;;1.70;1.15;;;;;;;;;;5045056;28;20112;-83
2023/04/12 08:10:37;;;;;;;1.10;1.00;;;;;;;;;;5044133;28;20025;-82
2023/04/12 08:13:04;;;;;;;2.45;1.33;;;;;;;;;;5043807;28;20060;-83
2023/04/12 08:15:29;;;;;;;4.72;2.17;;;;;;;;;;5037191;28;20051;-82
2023/04/12 08:17:54;;;;;;;1.10;1.00;;;;;;;;;;5038858;28;20029;-81
2023/04/12 08:20:20;;;;;;;1.10;0.90;;;;;;;;;;5039678;28;20096;-80
2023/04/12 08:22:45;;;;;;;2.17;1.63;;;;;;;;;;5034905;28;20555;-79
2023/04/12 08:25:11;;;;;;;2.83;1.73;;;;;;;;;;5041832;28;20075;-82
2023/04/12 08:27:40;;;;;;;1.92;1.13;;;;;;;;;;5039452;28;20029;-81
2023/04/12 08:30:07;;;;;;;1.52;0.98;;;;;;;;;;5046459;28;20029;-82
2023/04/12 08:32:32;;;;;;;1.33;1.00;;;;;;;;;;5035782;28;20033;-81
2023/04/12 08:34:59;;;;;;;2.03;1.15;;;;;;;;;;5036619;28;20044;-82
2023/04/12 08:37:24;;;;;;;1.83;1.23;;;;;;;;;;5036897;28;20041;-83
2023/04/12 08:39:50;;;;;;;1.48;1.20;;;;;;;;;;5034087;28;20055;-80
2023/04/12 08:42:16;;;;;;;1.83;0.98;;;;;;;;;;5032486;28;20029;-82
2023/04/12 08:44:41;;;;;;;1.88;1.27;;;;;;;;;;5041628;28;20060;-81
2023/04/12 08:47:10;;;;;;;1.65;1.35;;;;;;;;;;5038268;28;20094;-83
2023/04/12 08:49:36;;;;;;;2.80;1.13;;;;;;;;;;5043789;28;20029;-81
2023/04/12 08:52:05;;;;;;;2.67;1.38;;;;;;;;;;5041982;28;20592;-81
2023/04/12 08:54:31;;;;;;;1.92;1.35;;;;;;;;;;5043767;28;20091;-83
2023/04/12 08:57:00;;;;;;;0.80;0.80;;;;;;;;;;5044632;28;20468;-82
2023/04/12 08:59:29;;;;;;;1.23;0.98;;;;;;;;;;5043861;28;20457;-83
2023/04/12 09:01:55;;;;;;;4.10;1.45;;;;;;;;;;5035879;28;20064;-85
2023/04/12 09:04:21;;;;;;;1.95;1.25;;;;;;;;;;5038519;28;20040;-84
2023/04/12 09:06:47;;;;;;;1.10;0.85;;;;;;;;;;5040974;28;20028;-83
2023/04/12 09:09:13;;;;;;;1.20;1.00;;;;;;;;;;5040407;28;20420;-85
2023/04/12 09:11:38;;;;;;;1.77;1.42;;;;;;;;;;5040138;28;20470;-84
2023/04/12 09:14:20;;;;;;;1.80;1.38;;;;;;;;;;5035623;28;20033;-83
2023/04/12 09:16:46;;;;;;;1.10;0.93;;;;;;;;;;5036740;28;20044;-84
2023/04/12 09:19:12;;;;;;;0.70;0.60;;;;;;;;;;5042497;28;20066;-81
2023/04/12 09:21:52;;;;;;;2.08;1.25;;;;;;;;;;5035780;28;20025;-85
2023/04/12 09:24:17;;;;;;;1.60;1.30;;;;;;;;;;5045726;28;20370;-81
2023/04/12 09:26:43;;;;;;;1.30;1.20;;;;;;;;;;5045111;28;20173;-85
2023/04/12 09:29:26;;;;;;;2.60;1.20;;;;;;;;;;5037534;28;20021;-80
2023/04/12 09:32:09;;;;;;;2.53;1.02;;;;;;;;;;5037269;28;20057;-83
2023/04/12 09:34:35;;;;;;;1.52;0.82;;;;;;;;;;5034634;28;20030;-83
2023/04/12 09:37:15;;;;;;;1.00;0.65;;;;;;;;;;5040054;28;20393;-84
2023/04/12 09:39:41;;;;;;;3.17;1.17;;;;;;;;;;5036397;28;20025;-83
2023/04/12 09:42:11;;;;;;;0.60;0.60;;;;;;;;;;5031806;28;20032;-82
2023/04/12 09:44:36;;;;;;;;;;;;;;;;;;5040932;28;20044;-81
2023/04/12 09:47:03;;;;;;;3.83;1.08;;;;;;;;;;5045100;28;19919;-81
2023/04/12 09:49:37;;;;;;;0.98;0.82;;;;;;;;;;5042236;28;20020;-82
2023/04/12 09:52:05;;;;;;;1.65;0.93;;;;;;;;;;5036208;28;20025;-85
2023/04/12 09:54:36;;;;;;;1.08;0.85;;;;;;;;;;5046147;28;20025;-83
2023/04/12 09:57:05;;;;;;;0.93;0.80;;;;;;;;;;5042043;28;20025;-81
2023/04/12 09:59:34;;;;;;;1.42;0.88;;;;;;;;;;5040629;28;20048;-83
2023/04/12 10:02:01;;;;;;;1.52;0.80;;;;;;;;;;5039511;28;20021;-85
2023/04/12 10:04:28;;;;;;;2.75;1.48;;;;;;;;;;5037653;28;20029;-82
2023/04/12 10:06:54;;;;;;;6.65;0.93;;;;;;;;;;5043181;28;20112;-84
2023/04/12 10:09:20;;;;;;;1.58;1.02;;;;;;;;;;5038557;28;20517;-82
2023/04/12 10:11:47;;;;;;;0.80;0.73;;;;;;;;;;5046352;28;20068;-82
2023/04/12 10:14:16;;;;;;;0.50;0.40;;;;;;;;;;5042999;28;20029;-83
2023/04/12 10:16:43;;;;;;;0.32;0.32;;;;;;;;;;5033435;28;20029;-82
2023/04/12 10:19:09;;;;;;;0.63;0.45;;;;;;;;;;5038002;28;20477;-81
2023/04/12 10:21:35;;;;;;;0.95;0.40;;;;;;;;;;5037423;28;20469;-82
2023/04/12 10:24:00;;;;;;;0.45;0.40;;;;;;;;;;5039322;28;20026;-84
2023/04/12 10:26:26;;;;;;;1.13;0.70;;;;;;;;;;5035482;28;20065;-82
2023/04/12 10:29:24;;;;;;;0.57;0.45;;;;;;;;;;5037712;28;20064;-82
2023/04/12 10:31:49;;;;;;;0.40;0.40;;;;;;;;;;5040156;28;20029;-81
2023/04/12 10:34:15;;;;;;;5.90;0.93;;;;;;;;;;5041388;28;20151;-82
2023/04/12 10:36:51;;;;;;;0.30;0.30;;;;;;;;;;5040916;28;20028;-82
2023/04/12 10:39:18;;;;;;;0.85;0.47;;;;;;;;;;5035032;28;20053;-82
2023/04/12 10:42:14;;;;;;;1.52;0.55;;;;;;;;;;5038494;28;20474;-84
2023/04/12 10:44:40;;;;;;;0.60;0.60;;;;;;;;;;5031019;28;20394;-82
2023/04/12 10:47:05;;;;;;;0.60;0.60;;;;;;;;;;5041979;28;20025;-84
2023/04/12 10:49:31;;;;;;;1.25;0.90;;;;;;;;;;5038408;28;20029;-86
2023/04/12 10:52:02;;;;;;;0.30;0.30;;;;;;;;;;5038401;28;20109;-84
2023/04/12 10:54:28;;;;;;;0.30;0.30;;;;;;;;;;5038028;28;20087;-82
2023/04/12 10:56:53;;;;;;;0.73;0.57;;;;;;;;;;5040586;28;20078;-83
2023/04/12 10:59:19;;;;;;;0.82;0.70;;;;;;;;;;5040478;28;20033;-83
2023/04/12 11:02:03;;;;;;;1.25;0.65;;;;;;;;;;5044514;28;20176;-81
2023/04/12 11:04:29;;;;;;;0.60;0.50;;;;;;;;;;5043270;28;20032;-81
2023/04/12 11:07:00;;;;;;;0.85;0.52;;;;;;;;;;5040457;28;20393;-81
2023/04/12 11:09:36;;;;;;;0.63;0.60;;;;;;;;;;5038727;28;20021;-82
2023/04/12 11:12:04;;;;;;;0.40;0.40;;;;;;;;;;5048274;28;20029;-84
2023/04/12 11:14:49;;;;;;;0.30;0.30;;;;;;;;;;5039137;28;20534;-83
2023/04/12 11:17:15;;;;;;;1.13;0.60;;;;;;;;;;5047203;28;20025;-82
2023/04/12 11:19:45;;;;;;;1.33;0.52;;;;;;;;;;5045220;28;20120;-81
2023/04/12 11:22:14;;;;;;;0.35;0.30;;;;;;;;;;5043975;28;20037;-82
2023/04/12 11:24:47;;;;;;;1.70;0.40;;;;;;;;;;5042683;28;20036;-81
2023/04/12 11:27:13;;;;;;;1.60;0.65;;;;;;;;;;5047281;28;20029;-83
2023/04/12 11:29:39;;;;;;;0.90;0.50;;;;;;;;;;5043673;28;20037;-84
2023/04/12 11:32:10;;;;;;;0.75;0.50;;;;;;;;;;5038325;28;20025;-83
2023/04/12 11:34:36;;;;;;;0.60;0.55;;;;;;;;;;5044645;28;20086;-84
2023/04/12 11:37:08;;;;;;;0.65;0.55;;;;;;;;;;5037915;28;20029;-81
2023/04/12 11:39:39;;;;;;;0.88;0.63;;;;;;;;;;5044792;28;20051;-82
2023/04/12 11:42:07;;;;;;;0.63;0.43;;;;;;;;;;5035459;28;20029;-84
2023/04/12 11:44:34;;;;;;;0.30;0.25;;;;;;;;;;5045347;28;20044;-83
2023/04/12 11:47:02;;;;;;;1.55;0.82;;;;;;;;;;5043098;28;20021;-83
2023/04/12 11:49:28;;;;;;;0.55;0.52;;;;;;;;;;5053298;28;20491;-84
2023/04/12 11:52:02;;;;;;;0.40;0.40;;;;;;;;;;5044004;28;20152;-82
2023/04/12 11:54:29;;;;;;;1.13;0.45;;;;;;;;;;5034520;28;20029;-84
2023/04/12 11:56:57;;;;;;;0.35;0.30;;;;;;;;;;5050272;28;20043;-81
2023/04/12 11:59:32;;;;;;;0.50;0.43;;;;;;;;;;5049655;28;20512;-82
2023/04/12 12:02:01;;;;;;;2.35;0.80;;;;;;;;;;5039400;28;20034;-82
2023/04/12 12:04:30;;;;;;;0.63;0.52;;;;;;;;;;5044257;28;20108;-83
2023/04/12 12:06:57;;;;;;;0.90;0.30;;;;;;;;;;5043228;28;20064;-84
2023/04/12 12:09:24;;;;;;;0.73;0.40;;;;;;;;;;5042506;28;20505;-83
2023/04/12 12:11:50;;;;;;;0.40;0.40;;;;;;;;;;5033144;28;21908;-85
2023/04/12 12:14:19;;;;;;;0.68;0.52;;;;;;;;;;5042269;28;20029;-83
2023/04/12 12:16:57;;;;;;;0.40;0.40;;;;;;;;;;5037346;28;20029;-82
2023/04/12 12:19:31;;;;;;;0.65;0.47;;;;;;;;;;5043731;28;20503;-84
2023/04/12 12:22:06;;;;;;;2.22;1.05;;;;;;;;;;5030382;28;20029;-82
2023/04/12 12:24:32;;;;;;;0.95;0.35;;;;;;;;;;5041443;28;20028;-83
2023/04/12 12:27:03;;;;;;;0.73;0.43;;;;;;;;;;5041540;28;20033;-82
2023/04/12 12:29:36;;;;;;;0.77;0.28;;;;;;;;;;5034996;28;20033;-83
2023/04/12 12:32:02;;;;;;;1.20;0.70;;;;;;;;;;5042229;28;20074;-83
2023/04/12 12:34:33;;;;;;;2.17;0.68;;;;;;;;;;5039257;28;20028;-82
2023/04/12 12:36:59;;;;;;;0.55;0.38;;;;;;;;;;5047662;28;20024;-81
2023/04/12 12:39:25;;;;;;;0.75;0.40;;;;;;;;;;5036031;28;20080;-81
2023/04/12 12:41:55;;;;;;;1.00;0.73;;;;;;;;;;5047244;28;20560;-82
2023/04/12 12:44:21;;;;;;;2.25;0.98;;;;;;;;;;5046342;28;20038;-81
2023/04/12 12:46:47;;;;;;;0.47;0.30;;;;;;;;;;5044419;28;20377;-82
2023/04/12 12:49:12;;;;;;;2.15;0.80;;;;;;;;;;5045093;28;20025;-85
2023/04/12 12:51:37;;;;;;;0.35;0.35;;;;;;;;;;5050658;28;20025;-83
2023/04/12 12:54:03;;;;;;;0.70;0.60;;;;;;;;;;5046650;28;20033;-83
2023/04/12 12:56:29;;;;;;;0.60;0.50;;;;;;;;;;5036566;28;20039;-85
2023/04/12 12:58:54;;;;;;;2.78;0.68;;;;;;;;;;5040577;28;20025;-80
2023/04/12 13:01:21;;;;;;;0.57;0.30;;;;;;;;;;5044068;28;20029;-82
2023/04/12 13:03:46;;;;;;;1.50;0.55;;;;;;;;;;5040888;28;20021;-84
2023/04/12 13:06:11;;;;;;;0.85;0.60;;;;;;;;;;5039496;28;20101;-80
2023/04/12 13:08:37;;;;;;;2.03;0.68;;;;;;;;;;5043532;28;20385;-80
2023/04/12 13:11:02;;;;;;;1.05;0.63;;;;;;;;;;5041016;28;20036;-80
2023/04/12 13:13:28;;;;;;;0.60;0.60;;;;;;;;;;5045408;28;20473;-83
2023/04/12 13:15:55;;;;;;;0.50;0.47;;;;;;;;;;5043332;28;20529;-82
2023/04/12 13:18:21;;;;;;;1.38;0.77;;;;;;;;;;5039531;28;20469;-83
2023/04/12 13:20:46;;;;;;;4.45;0.70;;;;;;;;;;5034577;28;20036;-83
2023/04/12 13:23:12;;;;;;;0.95;0.50;;;;;;;;;;5042449;28;20025;-83
2023/04/12 13:25:37;;;;;;;0.52;0.43;;;;;;;;;;5043152;28;20032;-83
2023/04/12 13:28:03;;;;;;;0.52;0.50;;;;;;;;;;5043069;28;20098;-86
2023/04/12 13:30:28;;;;;;;1.17;0.85;;;;;;;;;;5040287;28;20029;-82
2023/04/12 13:32:54;;;;;;;0.40;0.40;;;;;;;;;;5043895;28;20029;-84
2023/04/12 13:35:19;;;;;;;0.30;0.30;;;;;;;;;;5041246;28;20028;-84
2023/04/12 13:37:45;;;;;;;0.50;0.50;;;;;;;;;;5039250;28;20037;-82
2023/04/12 13:40:10;;;;;;;0.30;0.30;;;;;;;;;;5035605;28;20099;-82
2023/04/12 13:42:35;;;;;;;0.65;0.35;;;;;;;;;;5044316;28;20035;-81
2023/04/12 13:45:02;;;;;;;1.15;0.52;;;;;;;;;;5044684;28;20413;-82
2023/04/12 13:47:28;;;;;;;0.43;0.43;;;;;;;;;;5036570;28;20070;-84
2023/04/12 13:49:53;;;;;;;0.55;0.40;;;;;;;;;;5036595;28;20029;-81
2023/04/12 13:52:19;;;;;;;0.75;0.38;;;;;;;;;;5033031;28;20092;-82
2023/04/12 13:54:45;;;;;;;0.45;0.30;;;;;;;;;;5042330;28;20029;-81
2023/04/12 13:57:10;;;;;;;0.70;0.50;;;;;;;;;;5037005;28;20032;-85
2023/04/12 13:59:36;;;;;;;1.08;0.43;;;;;;;;;;5038672;28;20022;-82
2023/04/12 14:02:01;;;;;;;0.65;0.65;;;;;;;;;;5038061;28;20028;-84
2023/04/12 14:04:28;;;;;;;1.10;0.38;;;;;;;;;;5037193;28;20031;-85
2023/04/12 14:06:54;;;;;;;0.68;0.35;;;;;;;;;;5039031;28;20061;-85
2023/04/12 14:09:28;;;;;;;1.85;1.27;;;;;;;;;;5040884;28;20021;-82
2023/04/12 14:11:55;;;;;;;1.20;0.70;;;;;;;;;;5038114;28;20044;-82
2023/04/12 14:14:21;;;;;;;3.55;1.30;;;;;;;;;;5036767;28;20064;-85
2023/04/12 14:16:49;;;;;;;0.80;0.52;;;;;;;;;;5036680;28;20057;-85
2023/04/12 14:19:15;;;;;;;0.40;0.40;;;;;;;;;;5042758;28;20385;-83
2023/04/12 14:21:40;;;;;;;2.92;0.55;;;;;;;;;;5040132;28;20029;-84
2023/04/12 14:24:06;;;;;;;0.88;0.40;;;;;;;;;;5043917;28;20028;-80
2023/04/12 14:26:31;;;;;;;0.40;0.40;;;;;;;;;;5041302;28;20052;-83
2023/04/12 14:28:57;;;;;;;0.65;0.38;;;;;;;;;;5043280;28;20033;-81
2023/04/12 14:31:22;;;;;;;7.72;4.05;;;;;;;;;;5044942;28;20101;-86
2023/04/12 14:33:47;;;;;;;0.73;0.60;;;;;;;;;;5036587;28;20021;-81
2023/04/12 14:36:13;;;;;;;0.65;0.50;;;;;;;;;;5042031;28;20025;-81
2023/04/12 14:38:38;;;;;;;0.82;0.82;;;;;;;;;;5036426;28;20432;-82
2023/04/12 14:41:08;;;;;;;1.45;0.50;;;;;;;;;;5040319;28;20111;-82
2023/04/12 14:43:33;;;;;;;0.40;0.40;;;;;;;;;;5044356;28;20045;-83